Time;durP1;ratioP1;P1;durP2;ratioP2;P2;SDS_P1;SDS_P2;PMS_P1;PMS_P2;Temp;Humidity;BMP_temperature;BMP_pressure;BME280_temperature;BME280_humidity;BME280_pressure;Samples;Min_cycle;Max_cycle;Signal;HPM_P1;HPM_P2
2023/08/03 00:00:25;;;;;;;;;4.00;1.50;;;;;19.51;58.97;99384.31;5045249;28;45556;-71
2023/08/03 00:02:51;;;;;;;;;2.75;2.00;;;;;19.54;58.97;99386.69;5035453;28;45158;-70
2023/08/03 00:05:19;;;;;;;;;12.75;7.25;;;;;19.53;58.78;99387.69;5034216;28;45251;-70
2023/08/03 00:07:45;;;;;;;;;7.00;4.00;;;;;19.53;58.59;99387.69;5038432;28;46762;-70
2023/08/03 00:10:10;;;;;;;;;2.75;1.25;;;;;19.54;58.90;99396.47;5049361;28;45458;-70
2023/08/03 00:12:35;;;;;;;;;4.25;0.50;;;;;19.54;58.40;99391.16;5034703;28;45616;-70
2023/08/03 00:15:01;;;;;;;;;2.75;1.00;;;;;19.52;58.47;99388.63;5031532;28;69142;-71
2023/08/03 00:17:26;;;;;;;;;3.50;1.25;;;;;19.53;58.13;99405.44;5036716;28;61386;-70
2023/08/03 00:19:51;;;;;;;;;3.50;1.00;;;;;19.52;58.05;99396.59;5016593;28;65596;-71
2023/08/03 00:22:17;;;;;;;;;4.75;1.00;;;;;19.50;58.15;99392.41;5030629;28;45407;-71
2023/08/03 00:24:42;;;;;;;;;5.00;2.00;;;;;19.48;58.33;99387.22;5033883;28;45379;-72
2023/08/03 00:27:07;;;;;;;;;16.25;11.50;;;;;19.51;58.12;99399.38;5033675;28;66643;-70
2023/08/03 00:29:33;;;;;;;;;7.25;4.00;;;;;19.50;58.07;99392.41;5037211;28;45928;-70
2023/08/03 00:32:00;;;;;;;;;1.00;1.00;;;;;19.48;57.91;99386.41;5033416;28;50528;-71
2023/08/03 00:34:26;;;;;;;;;5.75;1.50;;;;;19.49;57.88;99396.03;5035466;28;45407;-70
2023/08/03 00:36:51;;;;;;;;;5.25;2.25;;;;;19.48;57.85;99394.38;5030719;28;47023;-71
2023/08/03 00:39:16;;;;;;;;;2.25;0.75;;;;;19.47;57.61;99392.66;5018966;28;45362;-69
2023/08/03 00:41:42;;;;;;;;;7.25;2.50;;;;;19.46;57.91;99397.13;5030935;28;66184;-70
2023/08/03 00:44:07;;;;;;;;;1.00;1.00;;;;;19.45;58.08;99400.75;5033879;28;55059;-70
2023/08/03 00:46:32;;;;;;;;;5.00;2.00;;;;;19.47;57.92;99397.97;5032150;28;45310;-71
2023/08/03 00:48:58;;;;;;;;;9.00;4.50;;;;;19.46;58.19;99396.28;5034481;28;45462;-70
2023/08/03 00:51:23;;;;;;;;;18.00;16.75;;;;;19.46;58.00;99393.63;5031356;28;45426;-70
2023/08/03 00:53:48;;;;;;;;;13.00;8.00;;;;;19.47;57.45;99400.63;5037914;28;45381;-71
2023/08/03 00:56:14;;;;;;;;;2.00;2.00;;;;;19.49;57.56;99403.97;5031602;28;62010;-69
2023/08/03 00:58:39;;;;;;;;;4.75;4.25;;;;;19.48;57.42;99402.31;5018171;28;47313;-70
2023/08/03 01:01:05;;;;;;;;;4.25;2.25;;;;;19.49;57.27;99410.13;5038664;28;52296;-70
2023/08/03 01:03:31;;;;;;;;;2.50;2.00;;;;;19.48;57.46;99408.47;5023153;28;45495;-71
2023/08/03 01:05:56;;;;;;;;;3.75;1.00;;;;;19.49;57.44;99414.59;5033404;28;45423;-70
2023/08/03 01:08:22;;;;;;;;;3.00;2.75;;;;;19.45;57.75;99403.41;5032853;28;69022;-70
2023/08/03 01:10:47;;;;;;;;;2.50;1.00;;;;;19.42;57.44;99403.66;5006083;28;48127;-69
2023/08/03 01:13:12;;;;;;;;;5.75;2.00;;;;;19.44;57.92;99406.19;5036044;28;45367;-70
2023/08/03 01:15:38;;;;;;;;;9.25;7.75;;;;;19.43;57.86;99420.44;5029451;28;45475;-70
2023/08/03 01:18:03;;;;;;;;;2.75;1.50;;;;;19.41;58.10;99423.22;5034372;28;58166;-71
2023/08/03 01:20:30;;;;;;;;;2.25;1.00;;;;;19.38;58.04;99422.66;5035721;28;45501;-70
2023/08/03 01:22:55;;;;;;;;;3.75;1.25;;;;;19.35;58.05;99434.34;5038662;28;45324;-70
2023/08/03 01:25:21;;;;;;;;;15.00;10.00;;;;;19.32;58.30;99427.50;5013844;28;47070;-71
2023/08/03 01:27:47;;;;;;;;;2.00;0.75;;;;;19.27;58.88;99442.13;5034158;28;45320;-70
2023/08/03 01:30:12;;;;;;;;;2.00;1.00;;;;;19.26;60.09;99453.69;5046221;28;45450;-70
2023/08/03 01:32:38;;;;;;;;;4.00;1.00;;;;;19.20;60.37;99452.41;5022778;28;60808;-69
2023/08/03 01:35:06;;;;;;;;;3.00;1.00;;;;;19.13;60.33;99459.19;5030531;28;58184;-70
2023/08/03 01:37:34;;;;;;;;;2.75;1.00;;;;;19.04;60.67;99463.44;5037202;28;45419;-71
2023/08/03 01:39:59;;;;;;;;;2.25;1.25;;;;;18.99;61.82;99464.78;5033875;28;45501;-71
2023/08/03 01:42:25;;;;;;;;;3.50;0.25;;;;;18.90;60.93;99458.44;5016279;28;45564;-71
2023/08/03 01:44:50;;;;;;;;;1.00;1.00;;;;;18.82;61.30;99471.47;5036189;28;47924;-71
2023/08/03 01:47:16;;;;;;;;;1.50;1.00;;;;;18.79;61.35;99478.69;5033959;28;61914;-70
2023/08/03 01:49:41;;;;;;;;;2.25;1.00;;;;;18.73;61.49;99475.66;5049198;28;45901;-70
2023/08/03 01:52:06;;;;;;;;;11.50;9.75;;;;;18.70;62.63;99476.78;5035491;28;56764;-71
2023/08/03 01:54:32;;;;;;;;;1.50;1.50;;;;;18.67;61.67;99477.00;5027340;28;46853;-71
2023/08/03 01:56:57;;;;;;;;;1.00;1.00;;;;;18.60;62.17;99478.47;5021027;28;50400;-70
2023/08/03 01:59:22;;;;;;;;;4.25;2.00;;;;;18.58;62.27;99483.06;5036859;28;67022;-70
2023/08/03 02:01:48;;;;;;;;;3.25;2.00;;;;;18.54;62.55;99493.06;5031837;28;45362;-71
2023/08/03 02:04:14;;;;;;;;;4.25;1.75;;;;;18.50;62.62;99489.00;5026457;28;57352;-70
2023/08/03 02:06:40;;;;;;;;;3.50;2.25;;;;;18.49;62.55;99486.47;5027454;28;45782;-69
2023/08/03 02:09:05;;;;;;;;;2.25;1.00;;;;;18.44;62.94;99481.53;5034172;28;45400;-70
2023/08/03 02:11:31;;;;;;;;;4.50;2.00;;;;;18.45;63.20;99491.16;5035156;28;72367;-71
2023/08/03 02:13:56;;;;;;;;;1.50;1.50;;;;;18.44;62.91;99493.94;5029121;28;46294;-70
2023/08/03 02:16:21;;;;;;;;;1.25;1.25;;;;;18.43;63.15;99493.06;5032343;28;45383;-70
2023/08/03 02:18:47;;;;;;;;;3.75;0.75;;;;;18.41;63.84;99497.66;5024543;28;59000;-70
2023/08/03 02:21:12;;;;;;;;;0.00;0.00;;;;;18.39;63.40;99507.53;5032051;28;45585;-70
2023/08/03 02:23:37;;;;;;;;;3.75;1.00;;;;;18.37;63.16;99517.41;5033456;28;45457;-70
2023/08/03 02:26:03;;;;;;;;;4.00;1.00;;;;;18.35;63.52;99517.53;5033240;28;73040;-69
2023/08/03 02:28:30;;;;;;;;;4.00;1.00;;;;;18.31;64.30;99507.28;5038599;28;45355;-70
2023/08/03 02:30:56;;;;;;;;;2.00;0.25;;;;;18.34;64.84;99513.22;5034688;28;45385;-70
2023/08/03 02:33:21;;;;;;;;;0.50;0.50;;;;;18.32;63.86;99519.56;5032164;28;45380;-69
2023/08/03 02:35:46;;;;;;;;;2.00;2.00;;;;;18.32;63.75;99527.53;5023724;28;45443;-69
2023/08/03 02:38:12;;;;;;;;;2.25;1.75;;;;;18.30;63.88;99532.94;5033359;28;45396;-70
2023/08/03 02:40:37;;;;;;;;;0.25;0.00;;;;;18.26;64.56;99528.03;5034137;28;68129;-70
2023/08/03 02:43:02;;;;;;;;;5.25;0.75;;;;;18.20;65.14;99519.59;5029651;28;54800;-70
2023/08/03 02:45:28;;;;;;;;;0.00;0.00;;;;;18.18;65.05;99523.31;5035038;28;65072;-70
2023/08/03 02:47:53;;;;;;;;;0.25;0.00;;;;;18.15;64.98;99521.75;5037338;28;45311;-71
2023/08/03 02:50:19;;;;;;;;;3.00;0.75;;;;;18.11;65.02;99528.22;5033629;28;45303;-71
2023/08/03 02:52:44;;;;;;;;;0.75;0.00;;;;;18.12;65.03;99529.91;5039072;28;49621;-71
2023/08/03 02:55:09;;;;;;;;;2.00;0.75;;;;;18.12;65.61;99535.22;5034047;28;56438;-71
2023/08/03 02:57:34;;;;;;;;;1.75;0.25;;;;;18.12;65.85;99534.38;5030469;28;63499;-72
2023/08/03 03:00:00;;;;;;;;;3.75;0.50;;;;;18.10;65.27;99531.84;5031407;28;45514;-71
2023/08/03 03:02:25;;;;;;;;;1.25;0.00;;;;;18.11;65.46;99541.47;5027752;28;45510;-71
2023/08/03 03:04:51;;;;;;;;;1.00;0.75;;;;;18.10;65.91;99541.59;5019951;28;74000;-70
2023/08/03 03:07:16;;;;;;;;;2.50;0.00;;;;;18.09;65.38;99540.75;5032602;28;45348;-70
2023/08/03 03:09:42;;;;;;;;;0.00;0.00;;;;;18.09;65.14;99545.22;5028893;28;67291;-72
2023/08/03 03:12:07;;;;;;;;;2.00;1.00;;;;;18.06;66.10;99546.31;5032836;28;63018;-69
2023/08/03 03:14:35;;;;;;;;;0.50;0.50;;;;;18.04;66.24;99548.19;5031154;28;45523;-70
2023/08/03 03:17:03;;;;;;;;;0.75;0.25;;;;;18.04;65.92;99545.56;5034095;28;47017;-70
2023/08/03 03:19:29;;;;;;;;;2.25;1.00;;;;;18.00;66.10;99550.25;5033495;28;45309;-70
2023/08/03 03:21:54;;;;;;;;;0.50;0.50;;;;;18.02;66.06;99548.34;5044228;28;46510;-69
2023/08/03 03:24:19;;;;;;;;;4.25;0.50;;;;;17.99;66.69;99550.38;5030553;28;60531;-70
2023/08/03 03:26:45;;;;;;;;;6.00;2.00;;;;;17.98;66.00;99556.63;5032102;28;49124;-68
2023/08/03 03:29:10;;;;;;;;;0.00;0.00;;;;;17.99;66.42;99553.03;5035748;28;45367;-70
2023/08/03 03:31:35;;;;;;;;;1.00;0.00;;;;;17.95;66.17;99548.91;5035617;28;54187;-70
2023/08/03 03:34:01;;;;;;;;;1.75;1.00;;;;;17.97;66.46;99562.88;5023564;28;59968;-69
2023/08/03 03:36:26;;;;;;;;;1.00;1.00;;;;;17.96;66.21;99554.09;5031001;28;46822;-69
2023/08/03 03:38:51;;;;;;;;;2.75;0.00;;;;;17.97;66.46;99565.50;5035189;28;65713;-70
2023/08/03 03:41:17;;;;;;;;;1.00;1.00;;;;;17.99;66.60;99568.91;5019052;28;46978;-69
2023/08/03 03:43:42;;;;;;;;;2.75;1.00;;;;;17.95;66.44;99557.69;5037603;28;45428;-70
2023/08/03 03:46:08;;;;;;;;;0.25;0.25;;;;;17.97;66.54;99569.03;5016925;28;67180;-69
2023/08/03 03:48:33;;;;;;;;;0.00;0.00;;;;;18.00;66.25;99573.22;5025441;28;65556;-70
2023/08/03 03:50:58;;;;;;;;;2.25;0.50;;;;;17.99;66.27;99571.56;5035955;28;51705;-69
2023/08/03 03:53:24;;;;;;;;;0.25;0.00;;;;;17.99;66.28;99572.41;5037580;28;69322;-70
2023/08/03 03:55:49;;;;;;;;;1.00;0.50;;;;;17.99;66.32;99575.03;5035962;28;58002;-69
2023/08/03 03:58:14;;;;;;;;;3.25;1.00;;;;;18.01;66.18;99580.22;5032896;28;54878;-70
2023/08/03 04:00:40;;;;;;;;;1.50;0.00;;;;;18.01;66.03;99580.22;5053256;28;57752;-70
2023/08/03 04:03:07;;;;;;;;;2.00;0.75;;;;;17.99;66.43;99575.03;5037481;28;45276;-69
2023/08/03 04:05:33;;;;;;;;;0.00;0.00;;;;;18.03;66.16;99588.88;5040039;28;45269;-69
2023/08/03 04:07:59;;;;;;;;;0.00;0.00;;;;;18.02;66.46;99582.75;5029819;28;45306;-70
2023/08/03 04:10:24;;;;;;;;;1.25;1.00;;;;;18.02;66.60;99576.59;5032838;28;74305;-70
2023/08/03 04:12:49;;;;;;;;;0.00;0.00;;;;;18.02;66.03;99580.13;5036759;28;70505;-69
2023/08/03 04:15:15;;;;;;;;;1.75;0.00;;;;;18.02;66.23;99585.41;5036907;28;58096;-70
2023/08/03 04:17:40;;;;;;;;;0.00;0.00;;;;;18.02;66.60;99584.53;5049813;28;45339;-69
2023/08/03 04:20:06;;;;;;;;;1.00;1.00;;;;;18.04;66.38;99590.56;5035134;28;66596;-70
2023/08/03 04:22:31;;;;;;;;;0.50;0.50;;;;;18.05;66.73;99591.41;5037539;28;45507;-70
2023/08/03 04:24:57;;;;;;;;;1.25;0.75;;;;;18.03;66.71;99586.25;5032353;28;68239;-69
2023/08/03 04:27:22;;;;;;;;;4.00;0.00;;;;;17.99;66.44;99585.63;5025685;28;55092;-70
2023/08/03 04:29:47;;;;;;;;;1.00;1.00;;;;;18.02;66.31;99597.78;5025517;28;45530;-69
2023/08/03 04:32:13;;;;;;;;;2.25;1.00;;;;;18.01;66.54;99591.66;5052274;28;64452;-71
2023/08/03 04:34:38;;;;;;;;;2.25;1.00;;;;;18.03;66.33;99595.00;5028935;28;70268;-69
2023/08/03 04:37:03;;;;;;;;;1.50;1.00;;;;;18.05;66.20;99599.38;5036043;28;68390;-69
2023/08/03 04:39:29;;;;;;;;;1.50;1.00;;;;;18.07;66.50;99597.44;5037706;28;48585;-70
2023/08/03 04:41:54;;;;;;;;;0.00;0.00;;;;;18.09;66.28;99601.63;5043264;28;65959;-70
2023/08/03 04:44:19;;;;;;;;;0.00;0.00;;;;;18.09;66.10;99596.34;5025226;28;60785;-70
2023/08/03 04:46:45;;;;;;;;;3.25;1.00;;;;;18.10;66.28;99600.69;5035567;28;69124;-71
2023/08/03 04:49:12;;;;;;;;;1.50;1.00;;;;;18.13;66.22;99599.59;5041357;28;67889;-71
2023/08/03 04:51:38;;;;;;;;;3.75;0.00;;;;;18.14;66.23;99611.88;5036293;28;46378;-70
2023/08/03 04:54:03;;;;;;;;;4.00;1.00;;;;;18.16;66.25;99609.97;5027086;28;66320;-70
2023/08/03 04:56:28;;;;;;;;;3.00;1.00;;;;;18.17;66.14;99609.00;5037902;28;45217;-70
2023/08/03 04:58:54;;;;;;;;;1.75;0.25;;;;;18.15;66.46;99602.97;5038834;28;59904;-71
2023/08/03 05:01:19;;;;;;;;;1.00;1.00;;;;;18.18;65.80;99600.97;5026641;28;45482;-71
2023/08/03 05:03:44;;;;;;;;;2.50;1.00;;;;;18.18;66.57;99603.59;5042042;28;45534;-71
2023/08/03 05:06:10;;;;;;;;;1.75;1.00;;;;;18.17;67.48;99598.44;5019952;28;45544;-70
2023/08/03 05:08:35;;;;;;;;;0.25;0.00;;;;;18.20;66.65;99611.41;5025825;28;54186;-70
2023/08/03 05:11:00;;;;;;;;;3.50;0.00;;;;;18.23;66.41;99611.19;5021500;28;65351;-70
2023/08/03 05:13:26;;;;;;;;;2.50;0.75;;;;;18.23;66.15;99613.00;5020498;28;60603;-70
2023/08/03 05:15:51;;;;;;;;;1.00;1.00;;;;;18.21;66.62;99606.00;5040129;28;69928;-70
2023/08/03 05:18:16;;;;;;;;;3.25;1.00;;;;;18.23;66.72;99623.59;5042023;28;67962;-70
2023/08/03 05:20:42;;;;;;;;;1.75;1.50;;;;;18.25;66.12;99614.53;5031201;28;48943;-70
2023/08/03 05:23:08;;;;;;;;;1.00;0.50;;;;;18.25;65.98;99621.66;5041895;28;45389;-70
2023/08/03 05:25:34;;;;;;;;;1.25;0.75;;;;;18.27;66.55;99627.66;5018668;28;45862;-71
2023/08/03 05:28:00;;;;;;;;;1.25;1.25;;;;;18.27;66.56;99635.63;5023883;28;74482;-69
2023/08/03 05:30:25;;;;;;;;;3.00;0.00;;;;;18.27;66.80;99630.31;5025786;28;45435;-70
2023/08/03 05:32:51;;;;;;;;;3.00;1.00;;;;;18.25;66.52;99640.19;5050327;28;66838;-70
2023/08/03 05:35:16;;;;;;;;;1.75;0.75;;;;;18.24;66.84;99635.84;5026134;28;69233;-70
2023/08/03 05:37:42;;;;;;;;;3.25;1.00;;;;;18.27;66.76;99640.91;5027813;28;45731;-69
2023/08/03 05:40:07;;;;;;;;;2.00;2.00;;;;;18.25;66.72;99641.03;5026397;28;73369;-69
2023/08/03 05:42:37;;;;;;;;;3.50;1.00;;;;;18.27;66.74;99643.56;5033873;28;45525;-70
2023/08/03 05:45:11;;;;;;;;;1.50;1.00;;;;;18.27;66.53;99641.75;5020347;28;45308;-69
2023/08/03 05:47:38;;;;;;;;;3.50;1.00;;;;;18.29;67.05;99661.03;5026419;28;45518;-71
2023/08/03 05:50:16;;;;;;;;;5.00;1.00;;;;;18.28;66.72;99653.22;5036113;28;45557;-70
2023/08/03 05:52:42;;;;;;;;;3.25;1.75;;;;;18.27;67.01;99655.00;5029323;28;45378;-70
2023/08/03 05:55:11;;;;;;;;;4.00;1.00;;;;;18.26;67.07;99655.13;5029665;28;51949;-73
2023/08/03 05:57:36;;;;;;;;;3.50;2.25;;;;;18.29;66.62;99668.13;5032533;28;45449;-70
2023/08/03 06:00:04;;;;;;;;;3.00;1.50;;;;;18.28;66.43;99662.00;5052922;28;51725;-70
2023/08/03 06:02:32;;;;;;;;;2.00;1.00;;;;;18.31;66.77;99666.19;5032383;28;45577;-70
2023/08/03 06:04:58;;;;;;;;;2.00;2.00;;;;;18.32;66.82;99668.72;5035621;28;45466;-69
2023/08/03 06:07:23;;;;;;;;;1.75;1.00;;;;;18.33;66.66;99670.44;5028092;28;46038;-70
2023/08/03 06:09:50;;;;;;;;;3.50;1.00;;;;;18.32;66.32;99666.09;5036646;28;45753;-69
2023/08/03 06:12:15;;;;;;;;;2.00;1.00;;;;;18.38;66.43;99670.09;5023576;28;62603;-69
2023/08/03 06:14:41;;;;;;;;;5.00;1.00;;;;;18.40;66.20;99676.94;5019619;28;45348;-74
2023/08/03 06:17:10;;;;;;;;;2.00;1.00;;;;;18.45;66.29;99679.25;5027544;28;45285;-71
2023/08/03 06:19:36;;;;;;;;;1.75;1.75;;;;;18.47;66.43;99677.31;5033465;28;45497;-71
2023/08/03 06:22:05;;;;;;;;;1.00;1.00;;;;;18.51;66.00;99681.41;5035056;28;45487;-71
2023/08/03 06:24:30;;;;;;;;;2.00;1.00;;;;;18.51;66.32;99680.56;5031614;28;45549;-71
2023/08/03 06:26:57;;;;;;;;;2.50;1.00;;;;;18.56;66.09;99691.66;5033210;28;61660;-70
2023/08/03 06:29:23;;;;;;;;;4.50;2.00;;;;;18.57;66.02;99691.56;5033429;28;45478;-71
2023/08/03 06:31:49;;;;;;;;;2.50;1.25;;;;;18.60;65.67;99688.66;5037451;28;61252;-70
2023/08/03 06:34:14;;;;;;;;;7.00;5.75;;;;;18.63;65.36;99690.22;5029286;28;45571;-70
2023/08/03 06:36:42;;;;;;;;;3.00;2.00;;;;;18.64;65.79;99689.25;5030246;28;45300;-70
2023/08/03 06:39:07;;;;;;;;;3.75;1.50;;;;;18.66;65.64;99702.38;5016810;28;45285;-72
2023/08/03 06:41:33;;;;;;;;;6.25;1.00;;;;;18.65;65.62;99701.56;5027815;28;67864;-77
2023/08/03 06:43:58;;;;;;;;;3.50;1.75;;;;;18.66;65.11;99700.59;5044167;28;45340;-73
2023/08/03 06:46:25;;;;;;;;;3.75;2.25;;;;;18.64;64.90;99702.50;5023834;28;46934;-73
2023/08/03 06:48:50;;;;;;;;;6.00;2.00;;;;;18.66;65.53;99700.59;5043705;28;45454;-71
2023/08/03 06:51:16;;;;;;;;;3.00;2.00;;;;;18.70;65.34;99714.47;5015336;28;45395;-70
2023/08/03 06:53:42;;;;;;;;;2.25;2.25;;;;;18.74;65.33;99713.25;5045172;28;62327;-70
2023/08/03 06:56:07;;;;;;;;;4.50;1.00;;;;;18.77;65.15;99723.63;5034780;28;45593;-72
2023/08/03 06:58:32;;;;;;;;;5.00;1.75;;;;;18.74;66.20;99732.63;5027105;28;45817;-74
2023/08/03 07:00:58;;;;;;;;;2.00;2.00;;;;;18.72;65.78;99731.09;5021694;28;52491;-71
2023/08/03 07:03:23;;;;;;;;;2.00;1.25;;;;;18.69;66.74;99734.78;5029825;28;45372;-71
2023/08/03 07:05:49;;;;;;;;;3.00;2.00;;;;;18.67;66.62;99736.72;5031658;28;69846;-71
2023/08/03 07:08:14;;;;;;;;;2.00;2.00;;;;;18.65;66.14;99729.88;5037811;28;64131;-71
2023/08/03 07:10:40;;;;;;;;;2.00;1.00;;;;;18.64;66.31;99742.25;5015171;28;45403;-71
2023/08/03 07:13:05;;;;;;;;;2.00;1.50;;;;;18.63;66.21;99745.00;5027936;28;45370;-71
2023/08/03 07:15:33;;;;;;;;;3.00;1.00;;;;;18.59;66.57;99739.09;5036557;28;45236;-71
2023/08/03 07:18:09;;;;;;;;;4.25;1.50;;;;;18.57;66.94;99743.69;5029507;28;45482;-71
2023/08/03 07:20:34;;;;;;;;;4.50;1.75;;;;;18.57;68.91;99754.28;5021707;28;45229;-73
2023/08/03 07:23:00;;;;;;;;;2.25;2.25;;;;;18.55;67.21;99754.41;5022377;28;45371;-70
2023/08/03 07:25:26;;;;;;;;;5.25;2.25;;;;;18.56;67.46;99758.75;5023889;28;67134;-73
2023/08/03 07:27:52;;;;;;;;;3.00;1.00;;;;;18.58;66.87;99769.22;5029063;28;45474;-72
2023/08/03 07:30:17;;;;;;;;;2.50;2.00;;;;;18.56;67.18;99768.50;5024583;28;45460;-71
2023/08/03 07:32:43;;;;;;;;;4.25;1.00;;;;;18.54;67.25;99771.28;5048613;28;46062;-72
2023/08/03 07:35:08;;;;;;;;;2.75;2.75;;;;;18.57;67.05;99776.34;5020785;28;46925;-71
2023/08/03 07:37:34;;;;;;;;;5.00;2.50;;;;;18.57;67.51;99772.84;5029295;28;66827;-71
2023/08/03 07:39:59;;;;;;;;;5.00;2.50;;;;;18.56;67.01;99777.28;5028897;28;67048;-77
2023/08/03 07:42:24;;;;;;;;;3.00;2.00;;;;;18.62;67.16;99775.16;5027916;28;53603;-83
2023/08/03 07:44:53;;;;;;;;;5.00;2.25;;;;;18.62;67.21;99772.50;5026257;28;45289;-79
2023/08/03 07:47:19;;;;;;;;;3.00;3.00;;;;;18.66;67.52;99782.75;5039833;28;45678;-80
2023/08/03 07:49:44;;;;;;;;;4.00;2.00;;;;;18.69;67.19;99779.84;5034792;28;45247;-80
2023/08/03 07:52:11;;;;;;;;;6.75;2.00;;;;;18.72;67.19;99784.09;5035298;28;51789;-80
2023/08/03 07:54:36;;;;;;;;;3.50;3.50;;;;;18.80;66.96;99789.63;5030180;28;62593;-87
2023/08/03 07:57:02;;;;;;;;;2.50;1.75;;;;;18.85;66.94;99789.31;5027256;28;45257;-81
2023/08/03 07:59:27;;;;;;;;;5.25;1.75;;;;;18.86;66.69;99793.66;5023914;28;45424;-78
2023/08/03 08:01:52;;;;;;;;;6.25;3.00;;;;;18.86;66.59;99798.97;5040126;28;45359;-77
2023/08/03 08:04:18;;;;;;;;;3.25;1.00;;;;;18.83;66.65;99788.59;5033743;28;68358;-78
2023/08/03 08:06:44;;;;;;;;;3.00;2.00;;;;;18.89;66.43;99796.94;5038421;28;45297;-77
2023/08/03 08:09:10;;;;;;;;;3.00;3.00;;;;;18.89;66.56;99809.31;5035882;28;45440;-78
2023/08/03 08:11:35;;;;;;;;;3.00;1.25;;;;;18.90;66.52;99811.84;5039217;28;45793;-78
2023/08/03 08:14:01;;;;;;;;;3.75;3.00;;;;;18.87;66.26;99806.78;5041418;28;58822;-75
2023/08/03 08:16:26;;;;;;;;;4.75;1.50;;;;;18.92;66.18;99820.53;5037781;28;66187;-76
2023/08/03 08:18:51;;;;;;;;;5.50;2.00;;;;;18.95;66.33;99819.47;5022339;28;45688;-75
2023/08/03 08:21:17;;;;;;;;;1.50;1.25;;;;;19.02;65.87;99822.50;5029040;28;53697;-78
2023/08/03 08:23:42;;;;;;;;;4.75;2.25;;;;;19.06;65.94;99818.66;5036999;28;45225;-76
2023/08/03 08:26:18;;;;;;;;;5.00;2.00;;;;;19.11;65.61;99824.44;5029203;28;45270;-75
2023/08/03 08:28:45;;;;;;;;;4.00;3.00;;;;;19.16;65.73;99832.88;5050004;28;45393;-80
2023/08/03 08:31:10;;;;;;;;;4.75;2.00;;;;;19.19;65.47;99832.63;5031109;28;46032;-77
2023/08/03 08:33:37;;;;;;;;;4.00;2.00;;;;;19.21;65.26;99845.78;5034338;28;46176;-76
2023/08/03 08:36:03;;;;;;;;;6.00;3.00;;;;;19.21;65.44;99843.13;5018419;28;45808;-78
2023/08/03 08:38:29;;;;;;;;;3.00;1.75;;;;;19.18;65.40;99843.38;5036563;28;45614;-81
2023/08/03 08:40:54;;;;;;;;;3.25;1.00;;;;;19.14;65.73;99850.69;5039988;28;45312;-73
2023/08/03 08:43:20;;;;;;;;;3.25;2.00;;;;;19.12;65.30;99852.63;5021465;28;51248;-75
2023/08/03 08:45:45;;;;;;;;;1.75;1.75;;;;;19.10;65.78;99849.25;5018695;28;45300;-81
2023/08/03 08:48:11;;;;;;;;;2.75;2.75;;;;;19.16;65.60;99862.06;5030087;28;45418;-78
2023/08/03 08:50:38;;;;;;;;;6.50;3.00;;;;;19.23;65.68;99854.44;5028561;28;45877;-77
2023/08/03 08:53:04;;;;;;;;;7.75;2.00;;;;;19.28;65.66;99861.13;5034552;28;47187;-74
2023/08/03 08:55:30;;;;;;;;;4.00;2.00;;;;;19.37;65.31;99858.69;5043728;28;45755;-77
2023/08/03 08:57:58;;;;;;;;;2.00;1.25;;;;;19.41;65.31;99858.34;5025447;28;45463;-78
2023/08/03 09:00:24;;;;;;;;;3.50;2.00;;;;;19.51;64.96;99866.41;5030492;28;45281;-77
2023/08/03 09:03:00;;;;;;;;;2.00;2.00;;;;;19.62;64.72;99871.75;5040000;28;46698;-80
2023/08/03 09:05:26;;;;;;;;;4.00;2.00;;;;;19.73;64.53;99874.41;5026618;28;45348;-77
2023/08/03 09:07:58;;;;;;;;;3.50;2.00;;;;;19.77;64.30;99880.31;5028513;28;45288;-76
2023/08/03 09:10:24;;;;;;;;;2.00;2.00;;;;;19.76;64.42;99872.47;5025972;28;45482;-77
2023/08/03 09:12:49;;;;;;;;;2.00;2.00;;;;;19.76;64.18;99889.28;5038744;28;46983;-77
2023/08/03 09:15:15;;;;;;;;;2.50;2.50;;;;;19.78;64.20;99891.78;5031355;28;45336;-77
2023/08/03 09:17:42;;;;;;;;;6.75;3.50;;;;;19.78;64.42;99886.47;5040768;28;67268;-76
2023/08/03 09:20:22;;;;;;;;;6.00;3.00;;;;;19.87;64.46;99893.72;5041584;28;45232;-79
2023/08/03 09:22:48;;;;;;;;;4.25;3.75;;;;;19.90;64.25;99889.03;5034355;28;46635;-76
2023/08/03 09:25:14;;;;;;;;;2.50;2.00;;;;;19.89;63.81;99879.34;5030591;28;72337;-75
2023/08/03 09:27:48;;;;;;;;;3.00;2.00;;;;;19.92;63.92;99899.53;5006922;28;45304;-81
2023/08/03 09:30:14;;;;;;;;;3.00;2.25;;;;;19.87;64.10;99899.03;5038162;28;45450;-78
2023/08/03 09:32:39;;;;;;;;;2.75;2.25;;;;;19.94;63.93;99905.56;5020786;28;47434;-81
2023/08/03 09:35:25;;;;;;;;;5.00;2.50;;;;;19.95;63.76;99901.06;5029705;28;47762;-77
2023/08/03 09:37:54;;;;;;;;;3.75;1.00;;;;;19.88;64.37;99898.06;5039015;28;61590;-84
2023/08/03 09:40:20;;;;;;;;;2.00;2.00;;;;;19.89;63.82;99900.59;5040067;28;45438;-78
2023/08/03 09:42:47;;;;;;;;;3.00;2.50;;;;;19.94;64.23;99900.25;5016439;28;45558;-77
2023/08/03 09:45:13;;;;;;;;;2.00;2.00;;;;;20.05;63.85;99902.88;5033685;28;45790;-80
2023/08/03 09:47:39;;;;;;;;;1.00;1.00;;;;;20.05;63.91;99883.44;5051610;28;45373;-79
2023/08/03 09:50:06;;;;;;;;;2.00;1.00;;;;;20.19;63.73;99899.13;5035915;28;45301;-79
2023/08/03 09:52:32;;;;;;;;;2.00;2.00;;;;;20.27;63.78;99901.13;5033763;28;46192;-77
2023/08/03 09:55:05;;;;;;;;;5.00;2.25;;;;;20.35;63.67;99892.56;5013787;28;45727;-77
2023/08/03 09:57:35;;;;;;;;;3.25;3.25;;;;;20.53;62.76;99903.50;5033180;28;45305;-81
2023/08/03 10:00:08;;;;;;;;;1.75;0.50;;;;;20.71;62.96;99894.03;5025503;28;45540;-75
2023/08/03 10:02:52;;;;;;;;;2.00;2.00;;;;;20.96;62.54;99895.47;5028570;28;46045;-72
2023/08/03 10:05:19;;;;;;;;;1.75;1.75;;;;;21.15;61.56;99897.44;5001920;28;45306;-83
2023/08/03 10:08:14;;;;;;;;;3.25;2.75;;;;;21.37;60.87;99903.56;5032455;28;45251;-73
2023/08/03 10:10:43;;;;;;;;;3.00;3.00;;;;;21.51;60.98;99913.91;5031264;28;45491;-75
2023/08/03 10:13:09;;;;;;;;;3.25;2.25;;;;;21.60;60.07;99914.94;5028513;28;46499;-75
2023/08/03 10:15:34;;;;;;;;;3.25;3.25;;;;;21.65;60.04;99912.72;5053961;28;45507;-75
2023/08/03 10:18:04;;;;;;;;;4.00;4.00;;;;;21.60;59.67;99915.81;5032608;28;46204;-79
2023/08/03 10:20:30;;;;;;;;;5.00;3.00;;;;;21.56;58.70;99910.88;5032216;28;45251;-77
2023/08/03 10:23:12;;;;;;;;;4.50;3.00;;;;;21.54;57.78;99915.47;5015586;28;47229;-76
2023/08/03 10:26:00;;;;;;;;;3.50;3.00;;;;;21.52;58.88;99923.59;5026568;28;45467;-78
2023/08/03 10:28:39;;;;;;;;;2.25;2.00;;;;;21.58;57.87;99927.53;5035349;28;45816;-74
2023/08/03 10:31:15;;;;;;;;;2.00;1.00;;;;;21.56;58.01;99940.97;5027570;28;45423;-73
2023/08/03 10:33:47;;;;;;;;;1.00;1.00;;;;;21.59;56.57;99939.91;5022193;28;46219;-73
2023/08/03 10:36:27;;;;;;;;;1.75;1.75;;;;;21.61;56.68;99945.94;5031647;28;45426;-73
2023/08/03 10:39:00;;;;;;;;;3.00;3.00;;;;;21.60;57.79;99946.88;5024353;28;45394;-75
2023/08/03 10:41:36;;;;;;;;;5.75;2.00;;;;;21.53;57.80;99949.25;5044771;28;45528;-74
2023/08/03 10:44:12;;;;;;;;;3.00;3.00;;;;;21.46;57.72;99945.44;5027383;28;45456;-72
2023/08/03 10:46:52;;;;;;;;;31.00;24.75;;;;;21.32;58.07;99951.03;5018524;28;47180;-69
2023/08/03 10:49:17;;;;;;;;;6.50;5.25;;;;;21.20;58.25;99950.28;5007537;28;45428;-69
2023/08/03 10:51:43;;;;;;;;;4.33;3.00;;;;;21.09;58.76;99952.97;5030852;28;45506;-69
2023/08/03 10:54:12;;;;;;;;;4.75;3.75;;;;;21.00;58.32;99960.75;5034496;28;45653;-69
2023/08/03 10:56:37;;;;;;;;;5.00;3.00;;;;;20.96;58.57;99961.13;5029396;28;45778;-69
2023/08/03 10:59:03;;;;;;;;;3.00;3.00;;;;;20.96;59.12;99953.16;5030539;28;45251;-69
2023/08/03 11:01:29;;;;;;;;;6.00;3.00;;;;;20.97;59.09;99965.50;5022513;28;45801;-68
2023/08/03 11:03:55;;;;;;;;;4.25;4.25;;;;;21.01;58.75;99966.91;5032989;28;45175;-68
2023/08/03 11:06:21;;;;;;;;;8.00;5.25;;;;;21.07;58.72;99962.91;5035975;28;55857;-69
2023/08/03 11:08:47;;;;;;;;;7.75;5.25;;;;;21.10;58.80;99974.13;5042551;28;45445;-69
2023/08/03 11:11:13;;;;;;;;;5.25;4.00;;;;;21.12;58.67;99966.84;5048545;28;45513;-70
2023/08/03 11:13:45;;;;;;;;;3.00;3.00;;;;;21.20;59.19;99974.22;5021751;28;46990;-69
2023/08/03 11:16:14;;;;;;;;;3.50;2.50;;;;;21.20;58.39;99971.56;5046045;28;45257;-69
2023/08/03 11:18:44;;;;;;;;;1.25;1.25;;;;;21.21;58.21;99976.75;5023873;28;45439;-67
2023/08/03 11:21:10;;;;;;;;;5.00;3.75;;;;;21.26;58.18;99972.84;5043998;28;45380;-70
2023/08/03 11:23:35;;;;;;;;;3.75;3.00;;;;;21.31;58.00;99979.47;5036437;28;64627;-73
2023/08/03 11:26:06;;;;;;;;;5.75;2.75;;;;;21.34;58.01;99978.38;5045089;28;52051;-72
2023/08/03 11:28:38;;;;;;;;;6.25;4.00;;;;;21.29;58.31;99988.56;5034935;28;45258;-72
2023/08/03 11:31:03;;;;;;;;;6.00;3.25;;;;;21.17;58.12;99990.44;5026547;28;45422;-73